Stella Prima — PHEA — position and weather

sailwx.info

Track history (hours):
 
Tides and Currents Weather Stations Pressure Air Temp Water Temp Dewpoint Dewpoint Depression Visibility Wind Speed Wind Dir Waves Ship Positions

Stella Prima

Last reported at 2015-Mar-26 12:26 UTC. Time now 2015-Mar-27 22:11 UTC.
Position N 35°58' W 005°36'.

Length 100 m; beam 21 m.

Type: Cargo ship. MMSI: 246460000.

Date/timePositionNaut miles runAvg speedWind from/ knotsBaromVisibWave heightAir tempDewpointWater temp
2015-Mar-26 12:26N 35°58' W 005°36'910.3
2015-Mar-26 11:31N 36°01' W 005°25'1010.5
2015-Mar-26 10:33N 36°04' W 005°13'21212.4
2015-Mar-25 17:25N 37°14' W 001°03'1213.6
2015-Mar-25 16:33N 37°22' W 000°53'1414.6
2015-Mar-25 15:33N 37°32' W 000°39'1414.4
2015-Mar-25 14:34N 37°43' W 000°27'1414.2
2015-Mar-25 13:33N 37°54' W 000°17'13613.5
2015-Mar-25 03:29N 39°58' E 000°58'1313.8
2015-Mar-25 02:33N 40°11' E 001°00'1413.9
2015-Mar-25 01:33N 40°24' E 001°03'43 1.9
2015-Mar-24 03:31N 40°59' E 001°35'1111.5
2015-Mar-24 02:33N 40°56' E 001°50'1111.1
2015-Mar-24 01:33N 40°52' E 002°03'4 3.7
2015-Mar-24 00:33N 40°53' E 001°59'1 0.8
2015-Mar-23 23:33N 40°53' E 001°60'1111.5
2015-Mar-23 22:33N 40°49' E 002°14'1211.7
2015-Mar-23 21:33N 40°46' E 002°29'1211.8
2015-Mar-23 20:33N 40°42' E 002°43'1111.4
2015-Mar-23 19:33N 40°38' E 002°58'1111.0
2015-Mar-23 18:33N 40°35' E 003°11'1111.1
2015-Mar-23 17:33N 40°32' E 003°25'1611.2
2015-Mar-23 16:06N 40°27' E 003°46'19311.6
2015-Mar-22 23:25N 39°02' E 007°32'2412.1
2015-Mar-22 21:24N 38°51' E 007°60'1312.0
2015-Mar-22 20:19N 38°46' E 008°15'911.5
2015-Mar-22 19:33N 38°45' E 008°26'1211.5
2015-Mar-22 18:33N 38°44' E 008°41'1211.5
2015-Mar-22 17:32N 38°43' E 008°56'1211.8
2015-Mar-22 16:32N 38°42' E 009°11'1412.5
2015-Mar-22 15:22N 38°41' E 009°29'17111.6
2015-Mar-22 00:32N 38°26' E 013°08'1312.9
2015-Mar-21 23:33N 38°25' E 013°24'1311.9
2015-Mar-21 22:30N 38°24' E 013°40'6012.0
2015-Mar-21 17:31N 38°19' E 014°56'1212.3
2015-Mar-21 16:33N 38°19' E 015°11'1212.1
2015-Mar-21 15:33N 38°20' E 015°26'11 7.3
2015-Mar-21 14:04N 38°13' E 015°37'1112.4
2015-Mar-21 13:12N 38°03' E 015°36'1013.2
2015-Mar-21 12:28N 37°53' E 015°41'  
Track history (hours):
 
Tides and Currents Weather Stations Pressure Air Temp Water Temp Dewpoint Dewpoint Depression Visibility Wind Speed Wind Dir Waves Ship Positions

Stella Prima

Last reported at 2015-Mar-26 12:26 UTC. Time now 2015-Mar-27 22:11 UTC.
Position N 35°58' W 005°36'.

Length 100 m; beam 21 m.

Type: Cargo ship. MMSI: 246460000.

Date/timePositionNaut miles runAvg speedWind from/ knotsBaromVisibWave heightAir tempDewpointWater temp
2015-Mar-26 12:26N 35°58' W 005°36'910.3
2015-Mar-26 11:31N 36°01' W 005°25'1010.5
2015-Mar-26 10:33N 36°04' W 005°13'21212.4
2015-Mar-25 17:25N 37°14' W 001°03'1213.6
2015-Mar-25 16:33N 37°22' W 000°53'1414.6
2015-Mar-25 15:33N 37°32' W 000°39'1414.4
2015-Mar-25 14:34N 37°43' W 000°27'1414.2
2015-Mar-25 13:33N 37°54' W 000°17'13613.5
2015-Mar-25 03:29N 39°58' E 000°58'1313.8
2015-Mar-25 02:33N 40°11' E 001°00'1413.9
2015-Mar-25 01:33N 40°24' E 001°03'43 1.9
2015-Mar-24 03:31N 40°59' E 001°35'1111.5
2015-Mar-24 02:33N 40°56' E 001°50'1111.1
2015-Mar-24 01:33N 40°52' E 002°03'4 3.7
2015-Mar-24 00:33N 40°53' E 001°59'1 0.8
2015-Mar-23 23:33N 40°53' E 001°60'1111.5
2015-Mar-23 22:33N 40°49' E 002°14'1211.7
2015-Mar-23 21:33N 40°46' E 002°29'1211.8
2015-Mar-23 20:33N 40°42' E 002°43'1111.4
2015-Mar-23 19:33N 40°38' E 002°58'1111.0
2015-Mar-23 18:33N 40°35' E 003°11'1111.1
2015-Mar-23 17:33N 40°32' E 003°25'1611.2
2015-Mar-23 16:06N 40°27' E 003°46'19311.6
2015-Mar-22 23:25N 39°02' E 007°32'2412.1
2015-Mar-22 21:24N 38°51' E 007°60'1312.0
2015-Mar-22 20:19N 38°46' E 008°15'911.5
2015-Mar-22 19:33N 38°45' E 008°26'1211.5
2015-Mar-22 18:33N 38°44' E 008°41'1211.5
2015-Mar-22 17:32N 38°43' E 008°56'1211.8
2015-Mar-22 16:32N 38°42' E 009°11'1412.5
2015-Mar-22 15:22N 38°41' E 009°29'17111.6
2015-Mar-22 00:32N 38°26' E 013°08'1312.9
2015-Mar-21 23:33N 38°25' E 013°24'1311.9
2015-Mar-21 22:30N 38°24' E 013°40'6012.0
2015-Mar-21 17:31N 38°19' E 014°56'1212.3
2015-Mar-21 16:33N 38°19' E 015°11'1212.1
2015-Mar-21 15:33N 38°20' E 015°26'11 7.3
2015-Mar-21 14:04N 38°13' E 015°37'1112.4
2015-Mar-21 13:12N 38°03' E 015°36'1013.2
2015-Mar-21 12:28N 37°53' E 015°41'  

Dump ship's entire track history